createdAt,value
2022-09-05T00:00:11.491Z,99877.91
2022-09-05T00:03:04.333Z,99876.31
2022-09-05T00:06:03.754Z,99880.16
2022-09-05T00:09:10.860Z,99877.41
2022-09-05T00:11:44.073Z,99879.69
2022-09-05T00:15:14.850Z,99881.63
2022-09-05T00:22:52.624Z,99878.69
2022-09-05T00:24:21.740Z,99875.81
2022-09-05T00:24:45.605Z,99873.72
2022-09-05T00:27:03.029Z,99872.25
2022-09-05T00:31:05.701Z,99867.41
2022-09-05T00:33:27.100Z,99869.66
2022-09-05T00:36:21.722Z,99863.72
2022-09-05T00:38:59.842Z,99863.53
2022-09-05T00:41:26.907Z,99870.94
2022-09-05T00:43:55.239Z,99865.81
2022-09-05T00:46:26.960Z,99862.56
2022-09-05T00:49:17.933Z,99866.75
2022-09-05T00:51:56.727Z,99865.66
2022-09-05T00:54:26.315Z,99864.00
2022-09-05T00:57:47.950Z,99872.22
2022-09-05T01:00:24.834Z,99867.41
2022-09-05T01:03:09.662Z,99871.56
2022-09-05T01:06:00.972Z,99875.75
2022-09-05T01:08:52.187Z,99871.53
2022-09-05T01:11:37.871Z,99872.81
2022-09-05T01:14:22.877Z,99870.69
2022-09-05T01:17:11.189Z,99866.38
2022-09-05T01:20:02.327Z,99871.84
2022-09-05T01:22:49.262Z,99865.06
2022-09-05T01:25:34.251Z,99861.03
2022-09-05T01:29:13.245Z,99870.22
2022-09-05T01:31:17.343Z,99866.47
2022-09-05T01:34:08.920Z,99860.84
2022-09-05T01:37:05.144Z,99864.69
2022-09-05T01:40:12.205Z,99857.13
2022-09-05T01:43:06.206Z,99862.91
2022-09-05T01:45:45.909Z,99866.78
2022-09-05T01:48:21.634Z,99846.13
2022-09-05T01:51:00.429Z,99862.75
2022-09-05T01:53:54.498Z,99867.25
2022-09-05T01:56:30.328Z,99863.84
2022-09-05T01:59:12.322Z,99871.22
2022-09-05T02:01:41.897Z,99872.84
2022-09-05T02:04:33.455Z,99875.88
2022-09-05T02:07:20.081Z,99881.97
2022-09-05T02:10:30.072Z,99880.50
2022-09-05T02:13:03.492Z,99871.00
2022-09-05T02:15:45.149Z,99877.91
2022-09-05T02:18:29.698Z,99881.09
2022-09-05T02:20:58.699Z,99878.19
2022-09-05T02:23:44.271Z,99874.94
2022-09-05T02:26:26.537Z,99878.19
2022-09-05T02:28:57.481Z,99879.63
2022-09-05T02:31:39.763Z,99880.41
2022-09-05T02:34:41.812Z,99881.84
2022-09-05T02:37:12.919Z,99883.94
2022-09-05T02:45:01.614Z,99879.38
2022-09-05T02:45:21.695Z,99890.13
2022-09-05T02:46:44.529Z,99886.88
2022-09-05T02:49:43.160Z,99873.97
2022-09-05T02:57:29.377Z,99894.56
2022-09-05T02:57:35.750Z,99893.31
2022-09-05T02:58:08.489Z,99897.13
2022-09-05T03:00:42.422Z,99892.91
2022-09-05T03:03:29.690Z,99898.81
2022-09-05T03:06:05.599Z,99895.28
2022-09-05T03:08:41.216Z,99895.28
2022-09-05T03:11:36.506Z,99895.28
2022-09-05T03:14:18.556Z,99890.13
2022-09-05T03:16:47.396Z,99897.81
2022-09-05T03:19:31.061Z,99901.66
2022-09-05T03:22:36.909Z,99901.50
2022-09-05T03:25:10.325Z,99901.31
2022-09-05T03:28:14.869Z,99903.22
2022-09-05T03:30:50.374Z,99909.31
2022-09-05T03:33:43.223Z,99907.69
2022-09-05T03:36:22.133Z,99908.00
2022-09-05T03:38:49.030Z,99909.44
2022-09-05T03:41:40.298Z,99914.78
2022-09-05T03:44:40.710Z,99918.88
2022-09-05T03:47:37.000Z,99910.72
2022-09-05T03:54:53.073Z,99922.22
2022-09-05T03:57:11.961Z,99914.28
2022-09-05T03:57:18.603Z,99895.63
2022-09-05T03:59:46.352Z,99919.25
2022-09-05T04:07:45.760Z,99924.63
2022-09-05T04:08:14.240Z,99880.31
2022-09-05T04:08:29.693Z,99925.28
2022-09-05T04:11:04.189Z,99934.00
2022-09-05T04:13:35.903Z,99929.19
2022-09-05T04:16:14.997Z,99931.91
2022-09-05T04:18:51.679Z,99935.59
2022-09-05T04:21:31.359Z,99939.66
2022-09-05T04:24:23.338Z,99935.91
2022-09-05T04:27:27.826Z,99936.22
2022-09-05T04:29:58.672Z,99934.53
2022-09-05T04:35:07.763Z,99949.75
2022-09-05T04:37:48.443Z,99951.16
2022-09-05T04:40:49.714Z,99958.50
2022-09-05T04:43:41.497Z,99954.06
2022-09-05T04:46:29.725Z,99957.84
2022-09-05T04:49:06.268Z,99947.38
2022-09-05T04:52:00.386Z,99956.28
2022-09-05T04:54:37.248Z,99948.91
2022-09-05T04:57:16.170Z,99956.69
2022-09-05T05:03:12.948Z,99948.38
2022-09-05T05:06:10.661Z,99925.72
2022-09-05T05:06:16.910Z,99959.66
2022-09-05T05:08:47.409Z,99966.69
2022-09-05T05:17:57.708Z,99961.75
2022-09-05T05:18:01.502Z,99958.47
2022-09-05T05:18:06.250Z,99946.47
2022-09-05T05:20:40.235Z,99963.97
2022-09-05T05:23:12.342Z,99962.22
2022-09-05T05:25:56.106Z,99966.91
2022-09-05T05:28:44.969Z,99969.63
2022-09-05T05:31:26.413Z,99954.03
2022-09-05T05:33:53.488Z,99968.38
2022-09-05T05:36:24.632Z,99971.63
2022-09-05T05:39:17.781Z,99972.09
2022-09-05T05:41:54.167Z,99984.41
2022-09-05T05:44:26.399Z,99977.94
2022-09-05T05:47:32.326Z,99982.00
2022-09-05T05:50:11.794Z,99955.59
2022-09-05T05:52:57.770Z,99984.81
2022-09-05T05:55:52.070Z,99989.22
2022-09-05T05:58:32.629Z,99990.50
2022-09-05T06:01:30.323Z,99995.78
2022-09-05T06:04:44.978Z,99990.00
2022-09-05T06:07:25.647Z,99987.47
2022-09-05T06:14:44.791Z,99995.53
2022-09-05T06:15:01.624Z,99988.88
2022-09-05T06:16:49.109Z,99989.66
2022-09-05T06:20:15.016Z,99988.84
2022-09-05T06:22:53.053Z,99990.84
2022-09-05T06:25:41.593Z,99997.53
2022-09-05T06:28:18.853Z,99990.91
2022-09-05T06:31:29.039Z,99995.75
2022-09-05T06:33:52.356Z,99983.19
2022-09-05T06:36:34.561Z,99994.53
2022-09-05T06:39:41.006Z,99989.84
2022-09-05T06:42:42.762Z,99994.66
2022-09-05T06:45:34.414Z,100005.41
2022-09-05T06:48:45.708Z,99999.25
2022-09-05T06:51:26.027Z,100005.88
2022-09-05T06:53:55.726Z,100010.03
2022-09-05T06:56:56.399Z,100014.69
2022-09-05T06:59:48.872Z,100013.56
2022-09-05T07:02:42.710Z,100026.56
2022-09-05T07:05:23.580Z,100016.09
2022-09-05T07:08:18.446Z,100020.16
2022-09-05T07:11:11.275Z,100015.63
2022-09-05T07:13:56.865Z,100021.13
2022-09-05T07:16:38.496Z,100025.00
2022-09-05T07:19:25.624Z,99979.53
2022-09-05T07:22:48.506Z,100019.34
2022-09-05T07:25:18.733Z,100021.22
2022-09-05T07:28:19.573Z,100028.63
2022-09-05T07:30:46.793Z,100017.50
2022-09-05T07:33:18.817Z,100030.41
2022-09-05T07:35:45.861Z,100025.72
2022-09-05T07:38:18.037Z,100028.94
2022-09-05T07:41:18.674Z,100031.34
2022-09-05T07:43:46.505Z,100030.41
2022-09-05T07:46:16.223Z,100022.63
2022-09-05T07:49:07.983Z,100036.97
2022-09-05T07:56:49.150Z,100018.09
2022-09-05T07:56:49.969Z,100033.56
2022-09-05T07:57:46.856Z,100026.88
2022-09-05T08:00:25.601Z,100031.50
2022-09-05T08:02:55.179Z,100026.19
2022-09-05T08:05:30.189Z,100007.31
2022-09-05T08:08:01.890Z,100024.22
2022-09-05T08:11:14.481Z,100023.56
2022-09-05T08:13:40.005Z,99985.69
2022-09-05T08:16:13.409Z,100030.94
2022-09-05T08:19:24.575Z,100022.84
2022-09-05T08:21:51.992Z,100023.63
2022-09-05T08:24:47.138Z,100018.75
2022-09-05T08:27:24.771Z,100017.28
2022-09-05T08:30:27.269Z,100015.81
2022-09-05T08:32:49.622Z,100011.22
2022-09-05T08:35:26.706Z,100009.22
2022-09-05T08:37:54.560Z,100007.19
2022-09-05T08:40:26.189Z,100008.72
2022-09-05T08:46:37.717Z,100010.28
2022-09-05T08:46:47.737Z,100006.88
2022-09-05T08:49:11.255Z,100000.81
2022-09-05T08:52:16.933Z,100007.38
2022-09-05T08:54:48.035Z,100010.25
2022-09-05T08:57:36.674Z,100001.91
2022-09-05T09:00:18.934Z,99993.97
2022-09-05T09:03:16.241Z,99993.88
2022-09-05T09:06:13.580Z,99995.25
2022-09-05T09:09:11.125Z,99993.88
2022-09-05T09:11:45.243Z,99991.72
2022-09-05T09:14:30.308Z,99989.53
2022-09-05T09:17:16.007Z,99998.38
2022-09-05T09:19:48.980Z,99983.38
2022-09-05T09:22:21.054Z,99983.63
2022-09-05T09:25:15.859Z,99963.53
2022-09-05T09:28:45.287Z,99972.38
2022-09-05T09:30:57.484Z,99979.59
2022-09-05T09:33:34.082Z,99980.63
2022-09-05T09:36:30.536Z,99978.44
2022-09-05T09:39:38.864Z,99950.28
2022-09-05T09:42:32.514Z,99968.06
2022-09-05T09:45:00.569Z,99963.81
2022-09-05T09:48:08.583Z,99968.84
2022-09-05T09:50:58.507Z,99965.50
2022-09-05T09:54:04.389Z,99961.00
2022-09-05T09:56:55.787Z,99957.31
2022-09-05T09:59:34.051Z,99962.56
2022-09-05T10:06:50.973Z,99952.19
2022-09-05T10:10:39.760Z,99945.38
2022-09-05T10:10:49.033Z,99945.91
2022-09-05T10:15:31.220Z,99953.91
2022-09-05T10:18:24.504Z,99952.53
2022-09-05T10:21:16.327Z,99946.00
2022-09-05T10:24:16.835Z,99943.84
2022-09-05T10:27:21.171Z,99942.53
2022-09-05T10:30:09.167Z,99934.75
2022-09-05T10:35:04.672Z,99940.81
2022-09-05T10:35:42.664Z,99937.78
2022-09-05T10:38:11.533Z,99932.34
2022-09-05T10:41:16.148Z,99910.44
2022-09-05T10:43:31.924Z,99932.00
2022-09-05T10:46:01.787Z,99924.13
2022-09-05T10:48:41.399Z,99931.03
2022-09-05T10:51:41.050Z,99939.41
2022-09-05T10:54:38.059Z,99916.69
2022-09-05T10:57:17.195Z,99922.19
2022-09-05T11:02:19.479Z,99927.06
2022-09-05T11:02:57.745Z,99896.06
2022-09-05T11:05:37.099Z,99925.28
2022-09-05T11:08:11.646Z,99914.66
2022-09-05T11:11:09.634Z,99918.41
2022-09-05T11:13:50.020Z,99913.41
2022-09-05T11:16:49.581Z,99914.44
2022-09-05T11:19:39.885Z,99910.22
2022-09-05T11:22:22.506Z,99893.13
2022-09-05T11:24:56.205Z,99913.31
2022-09-05T11:27:40.240Z,99903.56
2022-09-05T11:30:29.234Z,99906.44
2022-09-05T11:39:45.990Z,99904.63
2022-09-05T11:39:55.186Z,99900.34
2022-09-05T11:39:59.857Z,99872.41
2022-09-05T11:42:23.376Z,99903.56
2022-09-05T11:45:21.036Z,99900.06
2022-09-05T11:48:02.494Z,99899.25
2022-09-05T11:50:59.526Z,99876.97
2022-09-05T11:54:06.825Z,99903.78
2022-09-05T11:56:49.057Z,99904.63
2022-09-05T11:59:34.244Z,99911.06
2022-09-05T12:02:38.828Z,99902.53
2022-09-05T12:05:50.306Z,99899.44
2022-09-05T12:08:31.386Z,99877.91
2022-09-05T12:10:58.651Z,99897.16
2022-09-05T12:13:31.987Z,99898.41
2022-09-05T12:16:08.206Z,99875.69
2022-09-05T12:18:58.483Z,99893.81
2022-09-05T12:21:39.752Z,99895.41
2022-09-05T12:25:24.832Z,99891.09
2022-09-05T12:27:39.964Z,99877.00
2022-09-05T12:30:36.404Z,99894.31
2022-09-05T12:36:03.703Z,99895.09
2022-09-05T12:40:45.163Z,99890.78
2022-09-05T12:40:58.415Z,99884.91
2022-09-05T12:42:15.154Z,99889.66
2022-09-05T12:45:28.168Z,99884.50
2022-09-05T12:48:25.918Z,99880.63
2022-09-05T12:51:05.828Z,99884.63
2022-09-05T12:53:43.500Z,99877.78
2022-09-05T12:58:37.299Z,99883.16
2022-09-05T13:03:02.089Z,99862.25
2022-09-05T13:03:09.582Z,99875.66
2022-09-05T13:05:12.630Z,99878.38
2022-09-05T13:07:43.032Z,99873.97
2022-09-05T13:14:49.862Z,99853.38
2022-09-05T13:14:57.458Z,99870.13
2022-09-05T13:15:56.920Z,99871.69
2022-09-05T13:18:30.947Z,99878.22
2022-09-05T13:21:04.469Z,99876.94
2022-09-05T13:23:32.837Z,99870.53
2022-09-05T13:26:08.084Z,99877.16
2022-09-05T13:29:00.186Z,99869.72
2022-09-05T13:38:03.339Z,99856.13
2022-09-05T13:38:04.149Z,99858.41
2022-09-05T13:38:13.928Z,99859.84
2022-09-05T13:40:23.141Z,99863.56
2022-09-05T13:43:00.210Z,99854.19
2022-09-05T13:45:29.568Z,99861.00
2022-09-05T13:47:57.960Z,99861.53
2022-09-05T13:50:25.705Z,99862.44
2022-09-05T13:53:17.454Z,99867.72
2022-09-05T13:55:54.078Z,99855.97
2022-09-05T13:58:48.032Z,99849.69
2022-09-05T14:01:44.165Z,99846.25
2022-09-05T14:10:16.070Z,99834.94
2022-09-05T14:13:02.541Z,99838.19
2022-09-05T14:15:35.473Z,99841.78
2022-09-05T14:18:19.945Z,99829.53
2022-09-05T14:21:18.938Z,99829.22
2022-09-05T14:23:53.732Z,99802.56
2022-09-05T14:26:53.092Z,99816.22
2022-09-05T14:29:26.267Z,99816.28
2022-09-05T14:37:37.383Z,99809.97
2022-09-05T14:37:50.881Z,99811.59
2022-09-05T14:38:09.302Z,99817.97
2022-09-05T14:41:17.998Z,99815.25
2022-09-05T14:43:47.904Z,99811.72
2022-09-05T14:46:29.583Z,99813.34
2022-09-05T14:49:11.382Z,99812.56
2022-09-05T14:51:39.420Z,99808.22
2022-09-05T15:00:41.578Z,99815.81
2022-09-05T15:02:57.901Z,99816.25
2022-09-05T15:03:02.596Z,99817.88
2022-09-05T15:05:40.062Z,99822.66
2022-09-05T15:08:22.703Z,99808.38
2022-09-05T15:12:14.877Z,99812.81
2022-09-05T15:14:11.187Z,99809.25
2022-09-05T15:16:43.577Z,99813.63
2022-09-05T15:20:05.676Z,99804.97
2022-09-05T15:22:41.991Z,99812.09
2022-09-05T15:25:17.274Z,99807.75
2022-09-05T15:27:46.244Z,99792.19
2022-09-05T15:30:35.887Z,99789.88
2022-09-05T15:33:25.899Z,99774.72
2022-09-05T15:35:53.167Z,99808.63
2022-09-05T15:38:29.870Z,99791.56
2022-09-05T15:41:21.828Z,99789.19
2022-09-05T15:43:51.828Z,99794.78
2022-09-05T15:46:37.702Z,99797.56
2022-09-05T15:49:08.978Z,99800.34
2022-09-05T15:51:48.532Z,99799.56
2022-09-05T15:54:37.594Z,99794.00
2022-09-05T15:57:08.978Z,99794.00
2022-09-05T15:59:49.203Z,99793.63
2022-09-05T16:02:24.872Z,99794.03
2022-09-05T16:10:27.143Z,99796.03
2022-09-05T16:10:35.760Z,99792.88
2022-09-05T16:11:58.146Z,99791.66
2022-09-05T16:14:16.887Z,99795.25
2022-09-05T16:23:29.335Z,99782.13
2022-09-05T16:23:33.827Z,99782.13
2022-09-05T16:23:34.889Z,99794.06
2022-09-05T16:25:34.645Z,99781.75
2022-09-05T16:28:03.872Z,99785.31
2022-09-05T16:30:38.509Z,99782.13
2022-09-05T16:33:07.792Z,99776.97
2022-09-05T16:35:37.994Z,99777.78
2022-09-05T16:38:18.884Z,99779.34
2022-09-05T16:41:03.745Z,99785.31
2022-09-05T16:43:36.462Z,99776.56
2022-09-05T16:46:49.382Z,99782.91
2022-09-05T16:49:42.063Z,99778.94
2022-09-05T16:52:17.207Z,99752.56
2022-09-05T16:55:03.267Z,99783.66
2022-09-05T16:57:34.496Z,99785.66
2022-09-05T17:00:03.110Z,99776.09
2022-09-05T17:02:39.158Z,99773.31
2022-09-05T17:05:30.931Z,99778.88
2022-09-05T17:08:00.761Z,99778.06
2022-09-05T17:10:50.715Z,99776.06
2022-09-05T17:13:45.477Z,99761.66
2022-09-05T17:16:29.511Z,99777.22
2022-09-05T17:18:59.445Z,99780.34
2022-09-05T17:24:11.005Z,99786.72
2022-09-05T17:29:18.357Z,99785.47
2022-09-05T17:29:41.271Z,99782.63
2022-09-05T17:31:25.172Z,99781.41
2022-09-05T17:32:53.248Z,99779.78
2022-09-05T17:35:30.133Z,99779.00
2022-09-05T17:38:12.116Z,99783.72
2022-09-05T17:40:59.431Z,99782.91
2022-09-05T17:43:33.102Z,99785.22
2022-09-05T17:46:12.274Z,99793.53
2022-09-05T17:48:49.241Z,99791.88
2022-09-05T17:51:35.156Z,99795.78
2022-09-05T17:54:08.596Z,99792.97
2022-09-05T17:56:45.496Z,99793.31
2022-09-05T17:59:24.751Z,99799.97
2022-09-05T18:02:06.911Z,99800.31
2022-09-05T18:04:39.850Z,99797.47
2022-09-05T18:07:31.162Z,99801.78
2022-09-05T18:10:15.349Z,99790.59
2022-09-05T18:13:12.724Z,99798.84
2022-09-05T18:15:36.175Z,99798.38
2022-09-05T18:18:08.734Z,99800.66
2022-09-05T18:21:12.214Z,99808.50
2022-09-05T18:26:39.605Z,99810.69
2022-09-05T18:32:55.096Z,99807.69
2022-09-05T18:35:41.941Z,99809.53
2022-09-05T18:38:17.584Z,99799.94
2022-09-05T18:41:00.460Z,99804.63
2022-09-05T18:43:46.412Z,99807.75
2022-09-05T18:46:32.049Z,99818.28
2022-09-05T18:50:21.963Z,99803.56
2022-09-05T18:52:26.736Z,99809.78
2022-09-05T18:55:46.398Z,99808.84
2022-09-05T18:57:48.226Z,99811.16
2022-09-05T19:00:15.585Z,99818.97
2022-09-05T19:02:58.113Z,99812.94
2022-09-05T19:05:40.414Z,99807.72
2022-09-05T19:08:32.168Z,99802.84
2022-09-05T19:11:00.985Z,99802.72
2022-09-05T19:13:38.782Z,99795.09
2022-09-05T19:16:43.992Z,99798.16
2022-09-05T19:19:16.065Z,99794.91
2022-09-05T19:22:09.079Z,99792.78
2022-09-05T19:24:45.155Z,99791.88
2022-09-05T19:33:37.396Z,99787.81
2022-09-05T19:36:54.779Z,99788.16
2022-09-05T19:36:56.709Z,99784.44
2022-09-05T19:37:08.358Z,99785.56
2022-09-05T19:38:24.062Z,99778.16
2022-09-05T19:47:26.709Z,99784.03
2022-09-05T19:47:39.846Z,99779.53
2022-09-05T19:47:40.611Z,99753.41
2022-09-05T19:49:14.367Z,99775.63
2022-09-05T19:51:41.365Z,99767.41
2022-09-05T19:54:08.537Z,99775.00
2022-09-05T19:56:43.653Z,99744.69
2022-09-05T19:59:22.917Z,99782.63
2022-09-05T20:01:51.875Z,99770.25
2022-09-05T20:04:19.597Z,99738.22
2022-09-05T20:06:47.494Z,99760.66
2022-09-05T20:09:24.752Z,99764.13
2022-09-05T20:11:57.881Z,99739.22
2022-09-05T20:14:32.428Z,99750.72
2022-09-05T20:17:23.496Z,99761.41
2022-09-05T20:20:25.689Z,99757.31
2022-09-05T20:23:01.811Z,99753.19
2022-09-05T20:25:35.900Z,99757.41
2022-09-05T20:28:09.785Z,99756.53
2022-09-05T20:30:40.396Z,99762.31
2022-09-05T20:33:27.565Z,99746.00
2022-09-05T20:43:10.427Z,99736.78
2022-09-05T20:43:20.295Z,99749.94
2022-09-05T20:43:23.647Z,99750.47
2022-09-05T20:44:25.120Z,99745.41
2022-09-05T20:52:13.883Z,99747.63
2022-09-05T20:54:07.263Z,99749.78
2022-09-05T20:54:20.747Z,99746.81
2022-09-05T20:55:39.977Z,99740.31
2022-09-05T20:58:15.755Z,99686.28
2022-09-05T21:01:20.465Z,99737.25
2022-09-05T21:03:36.701Z,99743.03
2022-09-05T21:06:23.618Z,99742.13
2022-09-05T21:08:55.409Z,99738.03
2022-09-05T21:11:29.941Z,99737.13
2022-09-05T21:13:57.275Z,99733.13
2022-09-05T21:16:29.016Z,99737.81
2022-09-05T21:18:55.943Z,99732.59
2022-09-05T21:21:29.263Z,99709.69
2022-09-05T21:24:15.929Z,99740.63
2022-09-05T21:26:44.117Z,99732.66
2022-09-05T21:29:10.874Z,99740.00
2022-09-05T21:31:49.233Z,99739.91
2022-09-05T21:34:29.473Z,99738.84
2022-09-05T21:37:06.396Z,99737.06
2022-09-05T21:39:39.940Z,99735.34
2022-09-05T21:42:59.847Z,99735.94
2022-09-05T21:47:35.074Z,99740.09
2022-09-05T21:47:52.174Z,99745.84
2022-09-05T21:50:31.303Z,99742.50
2022-09-05T21:53:46.996Z,99741.63
2022-09-05T21:59:18.595Z,99745.28
2022-09-05T21:59:19.731Z,99741.63
2022-09-05T22:01:48.689Z,99727.44
2022-09-05T22:04:12.893Z,99745.63
2022-09-05T22:06:39.875Z,99740.50
2022-09-05T22:09:13.092Z,99733.25
2022-09-05T22:11:41.097Z,99732.38
2022-09-05T22:14:09.138Z,99739.66
2022-09-05T22:16:43.403Z,99729.34
2022-09-05T22:19:17.862Z,99721.78
2022-09-05T22:21:44.730Z,99723.63
2022-09-05T22:24:11.646Z,99725.09
2022-09-05T22:27:11.815Z,99729.34
2022-09-05T22:29:35.466Z,99713.63
2022-09-05T22:32:02.644Z,99720.63
2022-09-05T22:34:29.540Z,99711.47
2022-09-05T22:36:56.477Z,99714.44
2022-09-05T22:39:25.620Z,99708.03
2022-09-05T22:42:10.322Z,99711.00
2022-09-05T22:44:40.706Z,99712.81
2022-09-05T22:47:08.928Z,99706.84
2022-09-05T22:49:36.590Z,99702.25
2022-09-05T22:52:05.323Z,99706.16
2022-09-05T22:54:32.278Z,99699.75
2022-09-05T22:56:59.163Z,99705.94
2022-09-05T22:59:26.116Z,99699.50
2022-09-05T23:01:53.098Z,99700.94
2022-09-05T23:04:20.118Z,99706.31
2022-09-05T23:06:47.149Z,99701.03
2022-09-05T23:09:14.049Z,99697.00
2022-09-05T23:11:40.902Z,99695.09
2022-09-05T23:14:07.813Z,99705.13
2022-09-05T23:16:34.679Z,99709.72
2022-09-05T23:19:01.614Z,99709.59
2022-09-05T23:21:28.565Z,99700.41
2022-09-05T23:23:55.430Z,99707.72
2022-09-05T23:26:22.472Z,99707.59
2022-09-05T23:28:49.456Z,99712.16
2022-09-05T23:31:16.393Z,99705.75
2022-09-05T23:33:43.372Z,99713.84
2022-09-05T23:36:13.630Z,99712.59
2022-09-05T23:38:43.531Z,99710.50
2022-09-05T23:41:12.128Z,99706.00
2022-09-05T23:43:39.051Z,99706.69
2022-09-05T23:46:05.983Z,99707.34
2022-09-05T23:48:33.042Z,99697.06
2022-09-05T23:51:10.651Z,99705.47
2022-09-05T23:53:37.690Z,99703.41
2022-09-05T23:56:05.971Z,99709.56
2022-09-05T23:58:33.114Z,99706.66
